createdAt,value
2023-01-21T00:06:42.175Z,41.88
2023-01-21T00:16:43.556Z,42.00
2023-01-21T00:26:45.024Z,42.22
2023-01-21T00:36:46.408Z,42.54
2023-01-21T00:46:47.788Z,42.73
2023-01-21T00:56:49.175Z,42.92
2023-01-21T01:06:50.919Z,42.73
2023-01-21T01:16:52.301Z,42.35
2023-01-21T01:26:53.734Z,42.21
2023-01-21T01:36:55.111Z,41.73
2023-01-21T01:46:56.509Z,41.61
2023-01-21T01:57:00.128Z,41.40
2023-01-21T02:07:01.580Z,41.22
2023-01-21T02:17:40.557Z,41.07
2023-01-21T02:27:57.338Z,41.18
2023-01-21T02:38:03.540Z,41.15
2023-01-21T02:48:14.955Z,41.06
2023-01-21T02:58:16.751Z,40.98
2023-01-21T03:08:22.199Z,40.80
2023-01-21T03:18:33.965Z,41.06
2023-01-21T03:28:37.687Z,41.27
2023-01-21T03:38:45.137Z,41.28
2023-01-21T03:48:52.732Z,41.45
2023-01-21T03:58:54.177Z,41.70
2023-01-21T04:08:55.571Z,42.11
2023-01-21T04:18:56.960Z,42.18
2023-01-21T04:28:58.478Z,42.21
2023-01-21T04:38:59.846Z,42.51
2023-01-21T04:49:01.394Z,41.92
2023-01-21T04:59:02.915Z,41.71
2023-01-21T05:09:04.499Z,41.41
2023-01-21T05:19:06.017Z,41.20
2023-01-21T05:29:07.429Z,41.03
2023-01-21T05:39:08.813Z,40.71
2023-01-21T05:49:10.432Z,40.74
2023-01-21T05:59:11.807Z,40.74
2023-01-21T06:09:13.196Z,40.80
2023-01-21T06:19:14.572Z,40.86
2023-01-21T06:29:15.943Z,40.87
2023-01-21T06:39:17.328Z,40.80
2023-01-21T06:49:18.767Z,40.74
2023-01-21T06:59:20.199Z,40.70
2023-01-21T07:09:21.760Z,40.77
2023-01-21T07:19:23.313Z,40.72
2023-01-21T07:29:24.891Z,40.69
2023-01-21T07:39:26.843Z,40.83
2023-01-21T07:49:28.361Z,40.71
2023-01-21T07:59:29.876Z,40.51
2023-01-21T08:09:31.403Z,40.35
2023-01-21T08:19:32.789Z,40.27
2023-01-21T08:29:34.191Z,40.07
2023-01-21T08:39:35.602Z,40.28
2023-01-21T08:49:36.984Z,40.31
2023-01-21T08:59:38.649Z,40.29
2023-01-21T09:09:40.055Z,40.24
2023-01-21T09:19:41.563Z,40.23
2023-01-21T09:29:42.952Z,40.21
2023-01-21T09:39:44.377Z,39.88
2023-01-21T09:49:48.279Z,39.88
2023-01-21T10:00:07.985Z,39.84
2023-01-21T10:10:21.822Z,39.88
2023-01-21T10:20:53.376Z,39.85
2023-01-21T10:30:56.714Z,39.87
2023-01-21T10:41:39.156Z,39.91
2023-01-21T10:51:44.920Z,39.70
2023-01-21T11:01:47.271Z,39.37
2023-01-21T11:11:48.660Z,39.49
2023-01-21T11:22:05.989Z,39.73
2023-01-21T11:32:19.694Z,39.58
2023-01-21T11:42:21.186Z,39.41
2023-01-21T11:52:22.584Z,39.06
2023-01-21T12:02:31.487Z,39.34
2023-01-21T12:12:38.765Z,39.23
2023-01-21T12:23:00.478Z,39.04
2023-01-21T12:33:04.575Z,39.27
2023-01-21T12:43:08.669Z,39.19
2023-01-21T12:53:09.916Z,39.31
2023-01-21T13:03:34.857Z,38.80
2023-01-21T13:13:57.804Z,39.18
2023-01-21T13:24:17.136Z,39.25
2023-01-21T13:34:34.069Z,39.25
2023-01-21T13:44:39.933Z,39.54
2023-01-21T13:54:54.786Z,39.55
2023-01-21T14:05:17.799Z,40.03
2023-01-21T14:15:34.757Z,39.96
2023-01-21T14:25:55.301Z,40.27
2023-01-21T14:36:02.682Z,40.46
2023-01-21T14:46:19.224Z,40.33
2023-01-21T14:56:27.783Z,40.44
2023-01-21T15:06:29.169Z,40.47
2023-01-21T15:16:35.650Z,40.36
2023-01-21T15:26:37.143Z,40.64
2023-01-21T15:36:50.238Z,40.91
2023-01-21T15:46:58.904Z,40.84
2023-01-21T15:57:23.386Z,40.98
2023-01-21T16:07:55.019Z,41.07
2023-01-21T16:18:14.661Z,41.08
2023-01-21T16:28:16.263Z,40.89
2023-01-21T16:38:22.454Z,40.84
2023-01-21T16:48:25.644Z,40.46
2023-01-21T16:58:29.402Z,40.32
2023-01-21T17:08:30.819Z,40.17
2023-01-21T17:18:40.025Z,40.06
2023-01-21T17:28:57.511Z,40.03
2023-01-21T17:38:59.296Z,39.82
2023-01-21T17:49:05.601Z,39.78
2023-01-21T17:59:37.426Z,39.71
2023-01-21T18:09:38.802Z,39.57
2023-01-21T18:19:40.203Z,39.62
2023-01-21T18:29:43.349Z,39.73
2023-01-21T18:39:44.821Z,39.94
2023-01-21T18:49:49.351Z,40.04
2023-01-21T18:59:50.802Z,40.25
2023-01-21T19:09:52.865Z,40.38
2023-01-21T19:19:54.439Z,40.66
2023-01-21T19:29:56.065Z,40.59
2023-01-21T19:39:57.449Z,40.70
2023-01-21T19:49:58.819Z,40.80
2023-01-21T20:00:00.253Z,40.87
2023-01-21T20:10:01.662Z,40.63
2023-01-21T20:20:16.793Z,40.33
2023-01-21T20:30:23.463Z,40.14
2023-01-21T20:40:27.019Z,39.90
2023-01-21T20:50:35.862Z,39.79
2023-01-21T21:00:37.330Z,39.91
2023-01-21T21:10:38.918Z,39.51
2023-01-21T21:20:40.440Z,39.68
2023-01-21T21:30:43.060Z,39.58
2023-01-21T21:40:45.164Z,39.60
2023-01-21T21:50:46.561Z,39.47
2023-01-21T22:00:52.474Z,39.37
2023-01-21T22:10:58.825Z,39.64
2023-01-21T22:21:27.431Z,39.30
2023-01-21T22:31:30.205Z,39.39
2023-01-21T22:41:31.907Z,39.40
2023-01-21T22:51:33.883Z,39.77
2023-01-21T23:01:36.509Z,39.84
2023-01-21T23:11:38.241Z,39.78
2023-01-21T23:21:40.209Z,39.77
2023-01-21T23:31:41.662Z,39.53
2023-01-21T23:41:43.278Z,39.32
2023-01-21T23:51:45.605Z,39.44
